New Orleans, Louisiana
Traffic Map
Current Weather Conditions
New Orleans, Louisiana
Few Clouds
Few Clouds
31°
Feels Like: 33°
Wind Chill: 31° Ceiling: Unl
Heat Index: 33° Visibility: 10mi
Dew Point: 21° Wind: 10mph
Humidity: 57% Direction: 130° (SE)
Pressure: 29.94in Gusts: 0mph
Raw Report DataKNEW 291953Z 13009KT 10SM FEW085 31/21 A2994 RMK AO2 LTG DSNT SE AND NW SLP132 T03060211
Traffic Incident Summary
Active as of:
Severity:
Category:
InformationThere was an issue retrieving the traffic information for this location. Please try a different location or try again shortly.
Advertisements
Track Severe Weather on mobile